Time;durP1;ratioP1;P1;durP2;ratioP2;P2;SDS_P1;SDS_P2;PMS_P1;PMS_P2;Temp;Humidity;BMP_temperature;BMP_pressure;BME280_temperature;BME280_humidity;BME280_pressure;Samples;Min_cycle;Max_cycle;Signal;HPM_P1;HPM_P2
2022/02/23 00:03:51;;;;;;;22.87;7.53;;;;;;;1.60;78.56;98942.91;4388489;80;21081;-89
2022/02/23 00:09:53;;;;;;;21.07;7.12;;;;;;;1.71;78.28;98944.17;4394739;80;21031;-89
2022/02/23 00:15:54;;;;;;;22.87;7.97;;;;;;;1.81;78.14;98926.33;4388738;80;21085;-90
2022/02/23 00:21:56;;;;;;;23.55;7.95;;;;;;;1.94;78.09;98919.16;4392046;80;21000;-88
2022/02/23 00:27:58;;;;;;;22.73;6.92;;;;;;;1.99;77.93;98908.20;4407514;80;21511;-90
2022/02/23 00:33:59;;;;;;;19.30;6.92;;;;;;;2.03;77.81;98904.53;4326460;81;21069;-89
2022/02/23 00:40:01;;;;;;;27.95;8.20;;;;;;;2.14;77.27;98888.23;4322269;81;21021;-90
2022/02/23 00:46:03;;;;;;;26.27;6.78;;;;;;;2.22;76.45;98875.27;4320498;82;20986;-89
2022/02/23 00:52:06;;;;;;;16.17;5.72;;;;;;;2.29;75.50;98863.94;4311937;82;21030;-90
2022/02/23 00:58:07;;;;;;;23.98;6.10;;;;;;;2.30;75.96;98854.16;4287283;81;21138;-90
2022/02/23 01:04:09;;;;;;;19.62;4.97;;;;;;;2.27;75.82;98839.95;4361699;80;21084;-90
2022/02/23 01:10:11;;;;;;;14.18;4.58;;;;;;;2.27;75.65;98843.23;4294609;81;21127;-90
2022/02/23 01:16:12;;;;;;;26.33;5.00;;;;;;;2.22;75.67;98842.85;4312007;82;21048;-89
2022/02/23 01:22:13;;;;;;;19.73;5.15;;;;;;;2.19;75.87;98836.75;4295874;81;21634;-90
2022/02/23 01:28:14;;;;;;;15.00;5.28;;;;;;;2.19;75.66;98837.30;4362895;80;21691;-89
2022/02/23 01:34:15;;;;;;;18.73;4.25;;;;;;;2.18;75.78;98841.90;4295894;81;21091;-89
2022/02/23 01:40:17;;;;;;;12.55;4.03;;;;;;;2.19;75.86;98825.95;4336055;81;21039;-91
2022/02/23 01:46:18;;;;;;;12.80;4.40;;;;;;;2.20;75.65;98803.77;4333677;81;21062;-89
2022/02/23 01:52:22;;;;;;;15.13;4.47;;;;;;;2.23;75.88;98795.81;4389642;80;21533;-90
2022/02/23 01:58:23;;;;;;;19.85;4.42;;;;;;;2.17;75.88;98783.61;4317369;81;21683;-89
2022/02/23 02:04:25;;;;;;;13.45;3.62;;;;;;;2.20;75.63;98781.61;4321110;81;21594;-90
2022/02/23 02:10:26;;;;;;;14.25;4.78;;;;;;;2.23;75.76;98776.91;4316037;81;22020;-88
2022/02/23 02:16:27;;;;;;;21.12;4.72;;;;;;;2.26;75.71;98778.16;4395831;80;21515;-90
2022/02/23 02:22:29;;;;;;;15.68;4.42;;;;;;;2.25;75.79;98781.98;4396025;80;21514;-90
2022/02/23 02:28:30;;;;;;;17.92;5.22;;;;;;;2.23;75.88;98770.70;4396341;79;21560;-90
2022/02/23 02:34:32;;;;;;;17.17;4.75;;;;;;;2.28;75.80;98751.07;4392114;80;21082;-90
2022/02/23 02:40:34;;;;;;;12.40;4.22;;;;;;;2.30;75.67;98748.05;4393442;80;21059;-89
2022/02/23 02:46:36;;;;;;;12.03;4.25;;;;;;;2.24;75.28;98735.84;4391340;80;21006;-90
2022/02/23 02:52:37;;;;;;;12.07;3.98;;;;;;;2.15;75.36;98739.93;4386247;80;21062;-89
2022/02/23 02:58:38;;;;;;;12.73;4.05;;;;;;;2.06;75.16;98736.48;4393862;79;21086;-89
2022/02/23 03:04:40;;;;;;;13.55;3.87;;;;;;;1.85;75.23;98735.62;4392353;80;21069;-89
2022/02/23 03:10:43;;;;;;;17.75;4.62;;;;;;;1.65;75.35;98740.38;4389392;79;21067;-89
2022/02/23 03:16:46;;;;;;;16.10;4.12;;;;;;;1.52;75.43;98753.50;4394837;80;21065;-90
2022/02/23 03:22:47;;;;;;;14.15;4.30;;;;;;;1.44;75.65;98751.64;4383277;80;21088;-89
2022/02/23 03:28:48;;;;;;;11.83;3.67;;;;;;;1.50;75.89;98751.70;4389651;80;21049;-89
2022/02/23 03:34:50;;;;;;;11.90;3.50;;;;;;;1.60;76.06;98736.50;4395607;80;22176;-89
2022/02/23 03:40:51;;;;;;;17.85;4.35;;;;;;;1.74;76.37;98730.34;4389162;80;21089;-89
2022/02/23 03:46:53;;;;;;;13.75;4.20;;;;;;;1.81;76.43;98740.64;4387027;80;21030;-90
2022/02/23 03:52:55;;;;;;;16.75;3.72;;;;;;;1.91;76.50;98737.59;4390426;80;21026;-91
2022/02/23 03:58:56;;;;;;;18.02;4.90;;;;;;;1.97;76.74;98741.14;4399870;79;21001;-89
2022/02/23 04:04:58;;;;;;;13.20;4.33;;;;;;;2.03;76.70;98733.09;4392820;80;21482;-89
2022/02/23 04:10:59;;;;;;;12.20;3.17;;;;;;;2.09;76.81;98739.89;4395488;80;21028;-90
2022/02/23 04:17:00;;;;;;;14.25;3.70;;;;;;;2.17;77.21;98746.35;4393132;80;21476;-89
2022/02/23 04:23:02;;;;;;;13.78;4.00;;;;;;;2.22;77.47;98746.98;4388194;80;21597;-91
2022/02/23 04:29:05;;;;;;;8.45;3.87;;;;;;;2.32;78.07;98772.25;4390690;80;22472;-89
2022/02/23 04:35:07;;;;;;;16.70;4.33;;;;;;;2.35;78.73;98784.33;4380788;80;21066;-90
2022/02/23 04:41:09;;;;;;;10.08;3.90;;;;;;;2.35;79.51;98789.73;4266807;83;21072;-89
2022/02/23 04:47:10;;;;;;;13.58;5.58;;;;;;;2.35;79.35;98792.43;4262458;83;21671;-90
2022/02/23 04:53:12;;;;;;;15.78;5.55;;;;;;;2.34;80.51;98797.58;4275753;82;21069;-89
2022/02/23 04:59:14;;;;;;;16.95;4.58;;;;;;;2.34;80.43;98801.08;4406664;79;21596;-89
2022/02/23 05:05:15;;;;;;;15.00;4.55;;;;;;;2.36;81.11;98811.56;4401764;80;22343;-89
2022/02/23 05:11:16;;;;;;;15.98;5.65;;;;;;;2.40;81.35;98820.04;4409141;80;21088;-90
2022/02/23 05:17:19;;;;;;;15.55;5.45;;;;;;;2.42;82.34;98827.27;4420593;79;20957;-89
2022/02/23 05:23:20;;;;;;;20.17;6.65;;;;;;;2.47;83.10;98831.14;4406775;79;21076;-90
2022/02/23 05:29:23;;;;;;;12.88;6.95;;;;;;;2.58;83.89;98831.00;4411182;80;21109;-89
2022/02/23 05:35:24;;;;;;;10.65;4.60;;;;;;;2.67;84.38;98839.05;4428416;79;21038;-89
